sensor_id;sensor_type;location;lat;lon;timestamp;pressure;altitude;pressure_sealevel;temperature;humidity
71970;BME280;59838;52.152;5.436;2023-05-25T00:00:40;102751.94;;;8.91;99.71
71970;BME280;59838;52.152;5.436;2023-05-25T00:03:26;102750.28;;;8.90;99.93
71970;BME280;59838;52.152;5.436;2023-05-25T00:05:53;102751.81;;;8.93;100.00
71970;BME280;59838;52.152;5.436;2023-05-25T00:08:19;102744.16;;;8.91;100.00
71970;BME280;59838;52.152;5.436;2023-05-25T00:10:46;102751.25;;;8.89;100.00
71970;BME280;59838;52.152;5.436;2023-05-25T00:13:13;102746.06;;;8.89;100.00
71970;BME280;59838;52.152;5.436;2023-05-25T00:15:39;102754.78;;;8.88;100.00
71970;BME280;59838;52.152;5.436;2023-05-25T00:18:06;102754.09;;;8.86;100.00
71970;BME280;59838;52.152;5.436;2023-05-25T00:20:33;102758.31;;;8.87;100.00
71970;BME280;59838;52.152;5.436;2023-05-25T00:22:59;102763.72;;;8.84;100.00
71970;BME280;59838;52.152;5.436;2023-05-25T00:25:28;102764.69;;;8.83;100.00
71970;BME280;59838;52.152;5.436;2023-05-25T00:27:54;102763.16;;;8.81;100.00
71970;BME280;59838;52.152;5.436;2023-05-25T00:30:21;102758.94;;;8.80;100.00
71970;BME280;59838;52.152;5.436;2023-05-25T00:32:48;102761.06;;;8.74;100.00
71970;BME280;59838;52.152;5.436;2023-05-25T00:35:14;102772.75;;;8.69;100.00
71970;BME280;59838;52.152;5.436;2023-05-25T00:37:42;102773.47;;;8.59;100.00
71970;BME280;59838;52.152;5.436;2023-05-25T00:40:13;102773.03;;;8.54;100.00
71970;BME280;59838;52.152;5.436;2023-05-25T00:42:40;102775.84;;;8.51;99.70
71970;BME280;59838;52.152;5.436;2023-05-25T00:45:07;102772.81;;;8.46;99.69
71970;BME280;59838;52.152;5.436;2023-05-25T00:47:34;102768.56;;;8.45;99.61
71970;BME280;59838;52.152;5.436;2023-05-25T00:50:02;102779.03;;;8.44;100.00
71970;BME280;59838;52.152;5.436;2023-05-25T00:52:33;102774.06;;;8.40;100.00
71970;BME280;59838;52.152;5.436;2023-05-25T00:55:01;102773.47;;;8.37;100.00
71970;BME280;59838;52.152;5.436;2023-05-25T00:57:30;102781.38;;;8.35;100.00
71970;BME280;59838;52.152;5.436;2023-05-25T00:59:59;102784.94;;;8.34;100.00
71970;BME280;59838;52.152;5.436;2023-05-25T01:02:27;102779.88;;;8.33;100.00
71970;BME280;59838;52.152;5.436;2023-05-25T01:04:56;102779.88;;;8.33;100.00
71970;BME280;59838;52.152;5.436;2023-05-25T01:07:26;102776.66;;;8.29;100.00
71970;BME280;59838;52.152;5.436;2023-05-25T01:09:58;102779.38;;;8.28;100.00
71970;BME280;59838;52.152;5.436;2023-05-25T01:12:27;102790.47;;;8.18;100.00
71970;BME280;59838;52.152;5.436;2023-05-25T01:14:55;102790.00;;;8.13;100.00
71970;BME280;59838;52.152;5.436;2023-05-25T01:17:22;102782.69;;;8.07;100.00
71970;BME280;59838;52.152;5.436;2023-05-25T01:19:49;102789.75;;;8.05;100.00
71970;BME280;59838;52.152;5.436;2023-05-25T01:22:42;102792.09;;;7.97;100.00
71970;BME280;59838;52.152;5.436;2023-05-25T01:25:14;102785.50;;;7.93;100.00
71970;BME280;59838;52.152;5.436;2023-05-25T01:27:57;102785.03;;;7.87;100.00
71970;BME280;59838;52.152;5.436;2023-05-25T01:30:29;102784.56;;;7.82;100.00
71970;BME280;59838;52.152;5.436;2023-05-25T01:32:58;102783.16;;;7.78;100.00
71970;BME280;59838;52.152;5.436;2023-05-25T01:35:26;102793.84;;;7.74;99.73
71970;BME280;59838;52.152;5.436;2023-05-25T01:37:53;102795.84;;;7.70;99.42
71970;BME280;59838;52.152;5.436;2023-05-25T01:40:20;102796.88;;;7.67;99.13
71970;BME280;59838;52.152;5.436;2023-05-25T01:42:46;102785.81;;;7.65;99.95
71970;BME280;59838;52.152;5.436;2023-05-25T01:45:13;102787.59;;;7.65;100.00
71970;BME280;59838;52.152;5.436;2023-05-25T01:53:05;102797.22;;;7.63;100.00
71970;BME280;59838;52.152;5.436;2023-05-25T01:55:40;102801.91;;;7.58;100.00
71970;BME280;59838;52.152;5.436;2023-05-25T01:58:09;102796.38;;;7.51;100.00
71970;BME280;59838;52.152;5.436;2023-05-25T02:00:40;102802.72;;;7.47;100.00
71970;BME280;59838;52.152;5.436;2023-05-25T02:03:07;102814.13;;;7.44;100.00
71970;BME280;59838;52.152;5.436;2023-05-25T02:05:35;102808.47;;;7.39;100.00
71970;BME280;59838;52.152;5.436;2023-05-25T02:08:03;102802.81;;;7.34;100.00
71970;BME280;59838;52.152;5.436;2023-05-25T02:10:29;102805.63;;;7.31;100.00
71970;BME280;59838;52.152;5.436;2023-05-25T02:12:56;102794.31;;;7.32;100.00
71970;BME280;59838;52.152;5.436;2023-05-25T02:15:23;102804.53;;;7.33;100.00
71970;BME280;59838;52.152;5.436;2023-05-25T02:17:49;102805.28;;;7.36;100.00
71970;BME280;59838;52.152;5.436;2023-05-25T02:20:17;102801.03;;;7.35;100.00
71970;BME280;59838;52.152;5.436;2023-05-25T02:22:43;102803.63;;;7.35;100.00
71970;BME280;59838;52.152;5.436;2023-05-25T02:25:10;102804.44;;;7.35;100.00
71970;BME280;59838;52.152;5.436;2023-05-25T02:27:36;102803.72;;;7.33;100.00
71970;BME280;59838;52.152;5.436;2023-05-25T02:30:03;102803.47;;;7.25;100.00
71970;BME280;59838;52.152;5.436;2023-05-25T02:32:29;102807.09;;;7.22;100.00
71970;BME280;59838;52.152;5.436;2023-05-25T02:34:56;102805.56;;;7.20;100.00
71970;BME280;59838;52.152;5.436;2023-05-25T02:37:23;102802.97;;;7.20;100.00
71970;BME280;59838;52.152;5.436;2023-05-25T02:39:49;102809.19;;;7.17;100.00
71970;BME280;59838;52.152;5.436;2023-05-25T02:42:16;102808.00;;;7.10;100.00
71970;BME280;59838;52.152;5.436;2023-05-25T02:44:42;102808.44;;;7.04;100.00
71970;BME280;59838;52.152;5.436;2023-05-25T02:47:14;102820.75;;;7.00;100.00
71970;BME280;59838;52.152;5.436;2023-05-25T02:49:41;102824.47;;;6.96;100.00
71970;BME280;59838;52.152;5.436;2023-05-25T02:52:07;102819.63;;;6.91;100.00
71970;BME280;59838;52.152;5.436;2023-05-25T02:54:34;102820.91;;;6.86;100.00
71970;BME280;59838;52.152;5.436;2023-05-25T02:57:04;102812.78;;;6.79;100.00
71970;BME280;59838;52.152;5.436;2023-05-25T02:59:31;102821.78;;;6.73;100.00
71970;BME280;59838;52.152;5.436;2023-05-25T03:01:58;102822.09;;;6.69;100.00
71970;BME280;59838;52.152;5.436;2023-05-25T03:04:25;102817.03;;;6.67;100.00
71970;BME280;59838;52.152;5.436;2023-05-25T03:06:51;102821.38;;;6.67;100.00
71970;BME280;59838;52.152;5.436;2023-05-25T03:09:18;102823.03;;;6.68;100.00
71970;BME280;59838;52.152;5.436;2023-05-25T03:11:45;102821.47;;;6.65;100.00
71970;BME280;59838;52.152;5.436;2023-05-25T03:14:11;102836.28;;;6.63;100.00
71970;BME280;59838;52.152;5.436;2023-05-25T03:16:38;102833.91;;;6.60;100.00
71970;BME280;59838;52.152;5.436;2023-05-25T03:19:05;102839.28;;;6.57;100.00
71970;BME280;59838;52.152;5.436;2023-05-25T03:21:32;102836.78;;;6.55;100.00
71970;BME280;59838;52.152;5.436;2023-05-25T03:23:59;102843.53;;;6.58;100.00
71970;BME280;59838;52.152;5.436;2023-05-25T03:26:25;102842.34;;;6.62;100.00
71970;BME280;59838;52.152;5.436;2023-05-25T03:28:52;102839.47;;;6.67;100.00
71970;BME280;59838;52.152;5.436;2023-05-25T03:31:18;102836.06;;;6.66;100.00
71970;BME280;59838;52.152;5.436;2023-05-25T03:33:45;102836.47;;;6.60;100.00
71970;BME280;59838;52.152;5.436;2023-05-25T03:36:11;102840.31;;;6.54;100.00
71970;BME280;59838;52.152;5.436;2023-05-25T03:38:38;102841.47;;;6.50;100.00
71970;BME280;59838;52.152;5.436;2023-05-25T03:41:05;102840.84;;;6.47;100.00
71970;BME280;59838;52.152;5.436;2023-05-25T03:43:32;102837.00;;;6.52;100.00
71970;BME280;59838;52.152;5.436;2023-05-25T03:45:59;102834.69;;;6.73;100.00
71970;BME280;59838;52.152;5.436;2023-05-25T03:48:26;102832.41;;;7.06;100.00
71970;BME280;59838;52.152;5.436;2023-05-25T03:50:52;102826.03;;;7.23;100.00
71970;BME280;59838;52.152;5.436;2023-05-25T03:53:19;102835.78;;;7.19;100.00
71970;BME280;59838;52.152;5.436;2023-05-25T03:55:46;102835.88;;;7.18;100.00
71970;BME280;59838;52.152;5.436;2023-05-25T03:58:12;102831.44;;;7.20;100.00
71970;BME280;59838;52.152;5.436;2023-05-25T04:00:39;102835.19;;;7.27;100.00
71970;BME280;59838;52.152;5.436;2023-05-25T04:03:07;102840.75;;;7.33;100.00
71970;BME280;59838;52.152;5.436;2023-05-25T04:05:36;102837.66;;;7.53;100.00
71970;BME280;59838;52.152;5.436;2023-05-25T04:08:03;102832.41;;;7.65;100.00
71970;BME280;59838;52.152;5.436;2023-05-25T04:10:30;102839.03;;;7.81;100.00
71970;BME280;59838;52.152;5.436;2023-05-25T04:12:57;102840.59;;;8.29;100.00
71970;BME280;59838;52.152;5.436;2023-05-25T04:15:25;102833.19;;;9.02;100.00
71970;BME280;59838;52.152;5.436;2023-05-25T04:17:51;102838.41;;;10.07;99.43
71970;BME280;59838;52.152;5.436;2023-05-25T04:20:18;102843.63;;;10.98;94.47
71970;BME280;59838;52.152;5.436;2023-05-25T04:22:45;102834.09;;;11.85;89.08
71970;BME280;59838;52.152;5.436;2023-05-25T04:25:11;102843.28;;;12.54;84.61
71970;BME280;59838;52.152;5.436;2023-05-25T04:27:38;102846.22;;;13.23;80.00
71970;BME280;59838;52.152;5.436;2023-05-25T04:30:05;102846.03;;;13.79;76.67
71970;BME280;59838;52.152;5.436;2023-05-25T04:32:32;102854.53;;;14.15;74.51
71970;BME280;59838;52.152;5.436;2023-05-25T04:35:02;102845.13;;;14.98;71.26
71970;BME280;59838;52.152;5.436;2023-05-25T04:37:29;102842.59;;;15.95;67.59
71970;BME280;59838;52.152;5.436;2023-05-25T04:39:55;102843.16;;;16.53;65.24
71970;BME280;59838;52.152;5.436;2023-05-25T04:42:24;102846.56;;;17.08;63.88
71970;BME280;59838;52.152;5.436;2023-05-25T04:44:51;102851.00;;;17.46;62.90
71970;BME280;59838;52.152;5.436;2023-05-25T04:47:24;102848.16;;;17.70;62.36
71970;BME280;59838;52.152;5.436;2023-05-25T04:49:51;102852.13;;;17.66;62.38
71970;BME280;59838;52.152;5.436;2023-05-25T04:52:18;102859.75;;;17.76;62.13
71970;BME280;59838;52.152;5.436;2023-05-25T04:54:44;102863.03;;;18.44;59.93
71970;BME280;59838;52.152;5.436;2023-05-25T04:57:12;102856.22;;;18.14;60.04
71970;BME280;59838;52.152;5.436;2023-05-25T04:59:38;102858.16;;;18.41;59.71
71970;BME280;59838;52.152;5.436;2023-05-25T05:02:05;102871.25;;;18.71;59.50
71970;BME280;59838;52.152;5.436;2023-05-25T05:04:31;102866.97;;;18.70;58.75
71970;BME280;59838;52.152;5.436;2023-05-25T05:06:58;102870.41;;;18.71;59.19
71970;BME280;59838;52.152;5.436;2023-05-25T05:09:25;102875.25;;;18.67;58.74
71970;BME280;59838;52.152;5.436;2023-05-25T05:11:51;102884.59;;;18.70;59.31
71970;BME280;59838;52.152;5.436;2023-05-25T05:14:18;102875.44;;;19.30;57.65
71970;BME280;59838;52.152;5.436;2023-05-25T05:16:44;102863.19;;;19.79;56.61
71970;BME280;59838;52.152;5.436;2023-05-25T05:19:13;102870.94;;;19.52;56.32
71970;BME280;59838;52.152;5.436;2023-05-25T05:21:39;102873.56;;;19.52;56.41
71970;BME280;59838;52.152;5.436;2023-05-25T05:24:06;102874.06;;;19.13;58.05
71970;BME280;59838;52.152;5.436;2023-05-25T05:26:33;102878.28;;;19.07;58.24
71970;BME280;59838;52.152;5.436;2023-05-25T05:29:19;102885.38;;;19.07;59.26
71970;BME280;59838;52.152;5.436;2023-05-25T05:31:45;102890.97;;;18.60;59.32
71970;BME280;59838;52.152;5.436;2023-05-25T05:34:12;102889.75;;;17.82;62.09
71970;BME280;59838;52.152;5.436;2023-05-25T05:36:39;102891.69;;;18.18;62.97
71970;BME280;59838;52.152;5.436;2023-05-25T05:39:22;102892.31;;;18.05;62.52
71970;BME280;59838;52.152;5.436;2023-05-25T05:41:49;102892.84;;;17.32;65.88
71970;BME280;59838;52.152;5.436;2023-05-25T05:44:16;102894.44;;;16.64;66.94
71970;BME280;59838;52.152;5.436;2023-05-25T05:46:42;102900.53;;;16.56;69.34
71970;BME280;59838;52.152;5.436;2023-05-25T05:49:09;102899.84;;;16.62;68.91
71970;BME280;59838;52.152;5.436;2023-05-25T05:51:35;102903.84;;;16.50;69.38
71970;BME280;59838;52.152;5.436;2023-05-25T05:54:02;102902.78;;;16.68;69.20
71970;BME280;59838;52.152;5.436;2023-05-25T05:56:29;102896.75;;;16.90;68.56
71970;BME280;59838;52.152;5.436;2023-05-25T05:58:56;102908.25;;;16.89;68.41
71970;BME280;59838;52.152;5.436;2023-05-25T06:01:23;102918.47;;;16.76;69.46
71970;BME280;59838;52.152;5.436;2023-05-25T06:03:50;102917.13;;;16.88;69.57
71970;BME280;59838;52.152;5.436;2023-05-25T06:06:20;102928.31;;;17.51;66.29
71970;BME280;59838;52.152;5.436;2023-05-25T06:08:47;102930.06;;;17.59;65.43
71970;BME280;59838;52.152;5.436;2023-05-25T06:11:13;102928.34;;;17.28;67.75
71970;BME280;59838;52.152;5.436;2023-05-25T06:13:39;102928.94;;;17.15;67.21
71970;BME280;59838;52.152;5.436;2023-05-25T06:16:06;102928.66;;;16.39;67.97
71970;BME280;59838;52.152;5.436;2023-05-25T06:18:33;102938.59;;;15.39;72.94
71970;BME280;59838;52.152;5.436;2023-05-25T06:21:00;102941.59;;;14.76;75.25
71970;BME280;59838;52.152;5.436;2023-05-25T06:23:26;102934.94;;;14.90;76.36
71970;BME280;59838;52.152;5.436;2023-05-25T06:25:53;102933.13;;;16.22;74.07
71970;BME280;59838;52.152;5.436;2023-05-25T06:28:20;102931.50;;;17.24;69.12
71970;BME280;59838;52.152;5.436;2023-05-25T06:30:47;102934.06;;;17.32;66.92
71970;BME280;59838;52.152;5.436;2023-05-25T06:33:13;102930.78;;;17.07;67.42
71970;BME280;59838;52.152;5.436;2023-05-25T06:35:39;102937.13;;;16.89;68.15
71970;BME280;59838;52.152;5.436;2023-05-25T06:38:07;102936.59;;;17.25;67.50
71970;BME280;59838;52.152;5.436;2023-05-25T06:40:34;102942.31;;;16.97;68.35
71970;BME280;59838;52.152;5.436;2023-05-25T06:43:00;102953.03;;;16.00;70.82
71970;BME280;59838;52.152;5.436;2023-05-25T06:45:27;102953.19;;;15.49;74.57
71970;BME280;59838;52.152;5.436;2023-05-25T06:47:53;102952.34;;;15.24;74.24
71970;BME280;59838;52.152;5.436;2023-05-25T06:50:20;102950.41;;;15.84;74.41
71970;BME280;59838;52.152;5.436;2023-05-25T06:52:54;102938.38;;;17.02;69.29
71970;BME280;59838;52.152;5.436;2023-05-25T06:55:20;102939.91;;;17.80;65.98
71970;BME280;59838;52.152;5.436;2023-05-25T06:57:47;102941.41;;;18.27;65.63
71970;BME280;59838;52.152;5.436;2023-05-25T07:00:14;102945.66;;;18.14;64.30
71970;BME280;59838;52.152;5.436;2023-05-25T07:02:41;102949.81;;;17.09;66.68
71970;BME280;59838;52.152;5.436;2023-05-25T07:05:08;102956.63;;;16.47;69.79
71970;BME280;59838;52.152;5.436;2023-05-25T07:07:35;102960.09;;;16.87;71.41
71970;BME280;59838;52.152;5.436;2023-05-25T07:10:04;102961.69;;;17.51;68.21
71970;BME280;59838;52.152;5.436;2023-05-25T07:12:32;102962.91;;;16.86;68.30
71970;BME280;59838;52.152;5.436;2023-05-25T07:14:58;102964.63;;;16.14;70.53
71970;BME280;59838;52.152;5.436;2023-05-25T07:17:25;102977.75;;;16.06;71.76
71970;BME280;59838;52.152;5.436;2023-05-25T07:19:52;102970.47;;;16.24;70.32
71970;BME280;59838;52.152;5.436;2023-05-25T07:22:18;102973.34;;;15.82;71.74
71970;BME280;59838;52.152;5.436;2023-05-25T07:24:45;102977.44;;;15.84;73.05
71970;BME280;59838;52.152;5.436;2023-05-25T07:27:12;102973.25;;;16.39;71.13
71970;BME280;59838;52.152;5.436;2023-05-25T07:29:39;102977.41;;;16.09;70.04
71970;BME280;59838;52.152;5.436;2023-05-25T07:32:06;102976.25;;;16.20;72.07
71970;BME280;59838;52.152;5.436;2023-05-25T07:34:33;102975.63;;;15.44;73.36
71970;BME280;59838;52.152;5.436;2023-05-25T07:36:59;102980.00;;;15.35;73.66
71970;BME280;59838;52.152;5.436;2023-05-25T07:39:26;102987.03;;;15.18;72.69
71970;BME280;59838;52.152;5.436;2023-05-25T07:41:53;102989.56;;;14.93;74.45
71970;BME280;59838;52.152;5.436;2023-05-25T07:44:19;102987.28;;;14.90;76.40
71970;BME280;59838;52.152;5.436;2023-05-25T07:46:46;102989.56;;;14.93;77.36
71970;BME280;59838;52.152;5.436;2023-05-25T07:49:12;103000.16;;;14.84;76.59
71970;BME280;59838;52.152;5.436;2023-05-25T07:51:42;102994.06;;;14.75;76.80
71970;BME280;59838;52.152;5.436;2023-05-25T07:54:10;102999.38;;;14.99;75.90
71970;BME280;59838;52.152;5.436;2023-05-25T07:56:37;102998.84;;;14.79;77.10
71970;BME280;59838;52.152;5.436;2023-05-25T07:59:04;102999.50;;;14.81;76.30
71970;BME280;59838;52.152;5.436;2023-05-25T08:01:31;103002.06;;;14.73;76.55
71970;BME280;59838;52.152;5.436;2023-05-25T08:03:58;103004.56;;;14.83;76.38
71970;BME280;59838;52.152;5.436;2023-05-25T08:06:25;103009.91;;;14.65;76.66
71970;BME280;59838;52.152;5.436;2023-05-25T08:08:52;103015.19;;;14.81;78.48
71970;BME280;59838;52.152;5.436;2023-05-25T08:11:23;103014.88;;;14.85;76.25
71970;BME280;59838;52.152;5.436;2023-05-25T08:13:53;103021.66;;;15.04;75.46
71970;BME280;59838;52.152;5.436;2023-05-25T08:16:20;103009.38;;;14.96;74.49
71970;BME280;59838;52.152;5.436;2023-05-25T08:18:46;103014.88;;;14.85;73.74
71970;BME280;59838;52.152;5.436;2023-05-25T08:21:13;103015.84;;;14.84;75.61
71970;BME280;59838;52.152;5.436;2023-05-25T08:23:40;103014.19;;;15.17;77.10
71970;BME280;59838;52.152;5.436;2023-05-25T08:26:09;103013.25;;;15.34;75.53
71970;BME280;59838;52.152;5.436;2023-05-25T08:28:59;103024.56;;;15.51;73.63
71970;BME280;59838;52.152;5.436;2023-05-25T08:31:26;103029.63;;;15.61;72.64
71970;BME280;59838;52.152;5.436;2023-05-25T08:33:53;103031.59;;;15.51;72.84
71970;BME280;59838;52.152;5.436;2023-05-25T08:36:19;103032.00;;;15.97;70.70
71970;BME280;59838;52.152;5.436;2023-05-25T08:38:46;103030.50;;;15.95;71.86
71970;BME280;59838;52.152;5.436;2023-05-25T08:41:13;103025.91;;;16.05;71.69
71970;BME280;59838;52.152;5.436;2023-05-25T08:43:40;103020.72;;;16.61;69.52
71970;BME280;59838;52.152;5.436;2023-05-25T08:46:07;103024.97;;;16.70;69.71
71970;BME280;59838;52.152;5.436;2023-05-25T08:48:35;103027.16;;;16.50;68.93
71970;BME280;59838;52.152;5.436;2023-05-25T08:51:09;103020.44;;;16.48;68.15
71970;BME280;59838;52.152;5.436;2023-05-25T08:53:38;103019.91;;;16.60;68.21
71970;BME280;59838;52.152;5.436;2023-05-25T08:56:19;103019.28;;;16.42;70.29
71970;BME280;59838;52.152;5.436;2023-05-25T09:01:45;103018.66;;;16.40;67.57
71970;BME280;59838;52.152;5.436;2023-05-25T09:04:16;103019.84;;;16.04;66.45
71970;BME280;59838;52.152;5.436;2023-05-25T09:06:44;103026.22;;;15.69;68.29
71970;BME280;59838;52.152;5.436;2023-05-25T09:09:27;103020.06;;;15.19;68.95
71970;BME280;59838;52.152;5.436;2023-05-25T09:11:55;103023.38;;;15.21;71.93
71970;BME280;59838;52.152;5.436;2023-05-25T09:14:22;103011.81;;;15.73;69.72
71970;BME280;59838;52.152;5.436;2023-05-25T09:16:49;103016.44;;;16.04;69.50
71970;BME280;59838;52.152;5.436;2023-05-25T09:19:16;103014.88;;;16.34;66.55
71970;BME280;59838;52.152;5.436;2023-05-25T09:21:43;103016.72;;;16.25;65.52
71970;BME280;59838;52.152;5.436;2023-05-25T09:24:09;103019.75;;;16.62;64.87
71970;BME280;59838;52.152;5.436;2023-05-25T09:26:37;103008.16;;;16.88;65.53
71970;BME280;59838;52.152;5.436;2023-05-25T09:29:03;103011.72;;;16.55;64.70
71970;BME280;59838;52.152;5.436;2023-05-25T09:31:30;103013.34;;;16.56;66.15
71970;BME280;59838;52.152;5.436;2023-05-25T09:33:57;103002.88;;;17.04;62.70
71970;BME280;59838;52.152;5.436;2023-05-25T09:36:25;103011.69;;;17.34;64.14
71970;BME280;59838;52.152;5.436;2023-05-25T09:38:53;103006.75;;;17.40;63.77
71970;BME280;59838;52.152;5.436;2023-05-25T09:41:20;103007.91;;;17.60;62.77
71970;BME280;59838;52.152;5.436;2023-05-25T09:43:47;103002.47;;;17.62;62.06
71970;BME280;59838;52.152;5.436;2023-05-25T09:46:34;103009.78;;;17.51;60.99
71970;BME280;59838;52.152;5.436;2023-05-25T09:49:06;103004.56;;;17.20;62.21
71970;BME280;59838;52.152;5.436;2023-05-25T09:51:34;103003.69;;;17.28;62.56
71970;BME280;59838;52.152;5.436;2023-05-25T09:54:03;103007.06;;;16.74;62.42
71970;BME280;59838;52.152;5.436;2023-05-25T09:56:34;103013.84;;;16.60;63.36
71970;BME280;59838;52.152;5.436;2023-05-25T09:59:00;103021.13;;;16.33;64.30
71970;BME280;59838;52.152;5.436;2023-05-25T10:01:27;103008.19;;;16.23;64.95
71970;BME280;59838;52.152;5.436;2023-05-25T10:03:54;103008.03;;;16.33;66.81
71970;BME280;59838;52.152;5.436;2023-05-25T10:06:32;103008.59;;;16.60;64.17
71970;BME280;59838;52.152;5.436;2023-05-25T10:08:59;103008.50;;;16.93;65.31
71970;BME280;59838;52.152;5.436;2023-05-25T10:11:27;103002.19;;;17.33;61.81
71970;BME280;59838;52.152;5.436;2023-05-25T10:13:55;103012.41;;;17.51;61.60
71970;BME280;59838;52.152;5.436;2023-05-25T10:16:25;103006.47;;;17.58;60.75
71970;BME280;59838;52.152;5.436;2023-05-25T10:19:00;103014.88;;;17.53;60.91
71970;BME280;59838;52.152;5.436;2023-05-25T10:21:30;103013.91;;;17.46;61.92
71970;BME280;59838;52.152;5.436;2023-05-25T10:24:05;103001.56;;;17.54;63.57
71970;BME280;59838;52.152;5.436;2023-05-25T10:26:38;103014.59;;;17.48;61.21
71970;BME280;59838;52.152;5.436;2023-05-25T10:29:06;103016.47;;;17.31;62.47
71970;BME280;59838;52.152;5.436;2023-05-25T10:31:34;103014.09;;;17.21;63.47
71970;BME280;59838;52.152;5.436;2023-05-25T10:34:02;103013.84;;;17.08;63.69
71970;BME280;59838;52.152;5.436;2023-05-25T10:36:30;103019.72;;;17.10;63.73
71970;BME280;59838;52.152;5.436;2023-05-25T10:38:59;103024.81;;;17.34;63.46
71970;BME280;59838;52.152;5.436;2023-05-25T10:41:27;103022.03;;;17.36;63.07
71970;BME280;59838;52.152;5.436;2023-05-25T10:43:54;103020.09;;;17.30;59.68
71970;BME280;59838;52.152;5.436;2023-05-25T10:46:21;103018.81;;;17.26;63.25
71970;BME280;59838;52.152;5.436;2023-05-25T10:48:49;103022.69;;;17.38;64.77
71970;BME280;59838;52.152;5.436;2023-05-25T10:51:20;103016.72;;;17.21;61.56
71970;BME280;59838;52.152;5.436;2023-05-25T10:53:58;103015.81;;;17.06;61.47
71970;BME280;59838;52.152;5.436;2023-05-25T10:56:25;103021.81;;;16.91;58.44
71970;BME280;59838;52.152;5.436;2023-05-25T10:58:52;103017.88;;;16.79;61.37
71970;BME280;59838;52.152;5.436;2023-05-25T11:01:18;103020.97;;;16.82;61.49
71970;BME280;59838;52.152;5.436;2023-05-25T11:06:17;103010.81;;;17.19;61.67
71970;BME280;59838;52.152;5.436;2023-05-25T11:08:57;103013.78;;;17.62;59.63
71970;BME280;59838;52.152;5.436;2023-05-25T11:17:11;103025.19;;;17.31;60.98
71970;BME280;59838;52.152;5.436;2023-05-25T11:19:40;103019.53;;;17.43;60.94
71970;BME280;59838;52.152;5.436;2023-05-25T11:22:31;103017.91;;;17.10;61.38
71970;BME280;59838;52.152;5.436;2023-05-25T11:24:59;103014.81;;;17.07;63.93
71970;BME280;59838;52.152;5.436;2023-05-25T11:27:27;103020.31;;;18.13;63.61
71970;BME280;59838;52.152;5.436;2023-05-25T11:29:55;103016.72;;;17.67;60.46
71970;BME280;59838;52.152;5.436;2023-05-25T11:32:23;103014.13;;;17.13;62.61
71970;BME280;59838;52.152;5.436;2023-05-25T11:34:52;103030.13;;;17.26;61.27
71970;BME280;59838;52.152;5.436;2023-05-25T11:37:20;103023.44;;;17.24;59.31
71970;BME280;59838;52.152;5.436;2023-05-25T11:39:49;103014.38;;;16.95;62.95
71970;BME280;59838;52.152;5.436;2023-05-25T11:42:19;103019.34;;;16.90;63.80
71970;BME280;59838;52.152;5.436;2023-05-25T11:44:46;103022.16;;;16.80;62.96
71970;BME280;59838;52.152;5.436;2023-05-25T11:47:14;103022.19;;;16.72;63.04
71970;BME280;59838;52.152;5.436;2023-05-25T11:49:45;103012.97;;;16.76;63.16
71970;BME280;59838;52.152;5.436;2023-05-25T11:52:14;103018.50;;;16.89;60.87
71970;BME280;59838;52.152;5.436;2023-05-25T11:54:42;103018.53;;;16.73;61.20
71970;BME280;59838;52.152;5.436;2023-05-25T11:57:20;103012.69;;;16.62;62.00
71970;BME280;59838;52.152;5.436;2023-05-25T11:59:51;103010.66;;;16.73;63.04
71970;BME280;59838;52.152;5.436;2023-05-25T12:02:18;103008.34;;;16.78;64.46
71970;BME280;59838;52.152;5.436;2023-05-25T12:04:58;103012.81;;;17.09;60.96
71970;BME280;59838;52.152;5.436;2023-05-25T12:07:28;103001.69;;;17.38;61.17
71970;BME280;59838;52.152;5.436;2023-05-25T12:10:08;103010.88;;;17.11;59.34
71970;BME280;59838;52.152;5.436;2023-05-25T12:12:40;102998.38;;;17.13;60.23
71970;BME280;59838;52.152;5.436;2023-05-25T12:15:09;102998.81;;;17.48;60.01
71970;BME280;59838;52.152;5.436;2023-05-25T12:17:39;102994.09;;;17.81;57.78
71970;BME280;59838;52.152;5.436;2023-05-25T12:20:08;102995.47;;;17.54;58.60
71970;BME280;59838;52.152;5.436;2023-05-25T12:22:36;102992.41;;;17.65;56.89
71970;BME280;59838;52.152;5.436;2023-05-25T12:25:07;103005.38;;;17.67;59.91
71970;BME280;59838;52.152;5.436;2023-05-25T12:27:36;102993.47;;;17.79;58.46
71970;BME280;59838;52.152;5.436;2023-05-25T12:30:04;103001.78;;;17.45;58.33
71970;BME280;59838;52.152;5.436;2023-05-25T12:32:31;102997.69;;;17.19;60.66
71970;BME280;59838;52.152;5.436;2023-05-25T12:35:02;103002.69;;;17.06;62.09
71970;BME280;59838;52.152;5.436;2023-05-25T12:37:29;103007.09;;;17.05;61.96
71970;BME280;59838;52.152;5.436;2023-05-25T12:39:56;103003.56;;;17.44;61.95
71970;BME280;59838;52.152;5.436;2023-05-25T12:42:25;102996.50;;;17.68;60.93
71970;BME280;59838;52.152;5.436;2023-05-25T12:44:55;103004.06;;;17.71;57.98
71970;BME280;59838;52.152;5.436;2023-05-25T12:47:28;103008.03;;;17.21;58.17
71970;BME280;59838;52.152;5.436;2023-05-25T12:50:12;103011.13;;;16.93;59.26
71970;BME280;59838;52.152;5.436;2023-05-25T12:52:43;103002.66;;;16.66;59.10
71970;BME280;59838;52.152;5.436;2023-05-25T12:55:24;103002.19;;;16.62;60.37
71970;BME280;59838;52.152;5.436;2023-05-25T12:58:02;103006.72;;;16.77;60.30
71970;BME280;59838;52.152;5.436;2023-05-25T13:00:35;103004.31;;;17.07;60.79
71970;BME280;59838;52.152;5.436;2023-05-25T13:03:02;103005.53;;;16.96;61.21
71970;BME280;59838;52.152;5.436;2023-05-25T13:05:31;103002.31;;;16.69;60.43
71970;BME280;59838;52.152;5.436;2023-05-25T13:08:00;102994.63;;;16.68;60.96
71970;BME280;59838;52.152;5.436;2023-05-25T13:10:30;102992.50;;;16.63;62.18
71970;BME280;59838;52.152;5.436;2023-05-25T13:12:58;102989.19;;;16.69;62.41